Time;durP1;ratioP1;P1;durP2;ratioP2;P2;SDS_P1;SDS_P2;PMS_P1;PMS_P2;Temp;Humidity;BMP_temperature;BMP_pressure;BME280_temperature;BME280_humidity;BME280_pressure;Samples;Min_cycle;Max_cycle;Signal;HPM_P1;HPM_P2
2021/07/09 00:01:39;;;;;;;1.15;0.60;;;23.60;61.70;;;;;;5025522;28;20386;-63
2021/07/09 00:04:05;;;;;;;1.10;0.60;;;23.60;61.70;;;;;;5023040;28;20402;-63
2021/07/09 00:06:31;;;;;;;1.20;0.50;;;23.60;61.70;;;;;;5025070;28;20398;-63
2021/07/09 00:08:57;;;;;;;1.20;0.50;;;23.60;61.70;;;;;;5024803;28;20933;-63
2021/07/09 00:11:22;;;;;;;1.02;0.57;;;23.60;61.70;;;;;;5025036;28;20405;-62
2021/07/09 00:13:48;;;;;;;1.10;0.60;;;23.60;61.70;;;;;;5024595;28;20391;-63
2021/07/09 00:16:16;;;;;;;1.60;0.50;;;23.60;61.70;;;;;;5024849;28;20383;-63
2021/07/09 00:18:42;;;;;;;0.98;0.60;;;23.60;61.70;;;;;;5024560;28;20828;-63
2021/07/09 00:21:07;;;;;;;1.00;0.60;;;23.50;61.60;;;;;;5024402;28;20434;-63
2021/07/09 00:23:33;;;;;;;0.70;0.40;;;23.50;61.60;;;;;;5024984;28;20454;-63
2021/07/09 00:25:59;;;;;;;0.90;0.43;;;23.50;61.60;;;;;;5023487;28;20402;-64
2021/07/09 00:28:25;;;;;;;1.13;0.67;;;23.50;61.60;;;;;;5024443;28;20429;-64
2021/07/09 00:30:50;;;;;;;1.05;0.60;;;23.50;61.60;;;;;;5024411;28;20390;-63
2021/07/09 00:33:16;;;;;;;1.10;0.60;;;23.50;61.60;;;;;;5024475;28;20406;-63
2021/07/09 00:35:42;;;;;;;0.70;0.45;;;23.50;61.60;;;;;;5024503;28;20453;-63
2021/07/09 00:38:08;;;;;;;0.90;0.40;;;23.50;61.60;;;;;;5023964;28;20395;-63
2021/07/09 00:40:33;;;;;;;1.10;0.50;;;23.50;61.70;;;;;;5024392;28;20398;-63
2021/07/09 00:42:59;;;;;;;1.17;0.53;;;23.50;61.60;;;;;;5024138;28;20387;-63
2021/07/09 00:45:25;;;;;;;1.27;0.60;;;23.50;61.60;;;;;;5024199;28;20379;-63
2021/07/09 00:47:51;;;;;;;2.03;0.70;;;23.50;61.60;;;;;;5022281;28;20438;-64
2021/07/09 00:50:18;;;;;;;1.50;0.70;;;23.50;61.70;;;;;;5023772;28;20729;-64
2021/07/09 00:52:44;;;;;;;1.38;0.70;;;23.50;61.60;;;;;;5024247;28;20493;-64
2021/07/09 00:55:11;;;;;;;1.20;0.57;;;23.50;61.60;;;;;;5024007;28;20482;-64
2021/07/09 00:57:40;;;;;;;1.27;0.70;;;23.50;61.60;;;;;;5023283;28;20483;-64
2021/07/09 01:00:08;;;;;;;1.42;0.60;;;23.50;61.60;;;;;;5023803;28;20414;-63
2021/07/09 01:02:33;;;;;;;1.70;0.70;;;23.50;61.60;;;;;;5024205;28;20830;-63
2021/07/09 01:04:59;;;;;;;1.23;0.50;;;23.50;61.60;;;;;;5023756;28;20506;-63
2021/07/09 01:07:25;;;;;;;1.48;0.65;;;23.50;61.60;;;;;;5023802;28;20490;-64
2021/07/09 01:09:52;;;;;;;1.42;0.68;;;23.50;61.60;;;;;;5023567;28;20411;-64
2021/07/09 01:12:19;;;;;;;1.10;0.60;;;23.50;61.60;;;;;;5023745;28;20383;-63
2021/07/09 01:14:45;;;;;;;1.20;0.60;;;23.50;61.60;;;;;;5022267;28;20449;-63
2021/07/09 01:17:13;;;;;;;1.55;0.65;;;23.50;61.60;;;;;;5023343;28;20394;-63
2021/07/09 01:19:40;;;;;;;1.17;0.60;;;23.50;61.60;;;;;;5021955;28;20407;-63
2021/07/09 01:22:06;;;;;;;1.50;0.60;;;23.50;61.60;;;;;;5037892;28;20419;-63
2021/07/09 01:24:32;;;;;;;1.33;0.50;;;23.50;61.60;;;;;;5038593;28;20457;-65
2021/07/09 01:26:58;;;;;;;1.00;0.50;;;23.40;61.60;;;;;;5023508;28;20435;-64
2021/07/09 01:29:24;;;;;;;1.17;0.50;;;23.50;61.60;;;;;;5023462;28;20508;-63
2021/07/09 01:31:51;;;;;;;0.88;0.50;;;23.40;61.60;;;;;;5023599;28;20395;-63
2021/07/09 01:34:17;;;;;;;1.00;0.50;;;23.40;61.50;;;;;;5022856;28;20395;-64
2021/07/09 01:36:43;;;;;;;1.05;0.47;;;23.40;61.60;;;;;;5023304;28;20437;-66
2021/07/09 01:39:09;;;;;;;1.10;0.50;;;23.40;61.50;;;;;;5023276;28;20407;-64
2021/07/09 01:41:35;;;;;;;0.93;0.60;;;23.40;61.60;;;;;;5021879;28;20553;-63
2021/07/09 01:44:03;;;;;;;1.20;0.50;;;23.40;61.60;;;;;;5021880;28;20961;-63
2021/07/09 01:46:29;;;;;;;1.07;0.60;;;23.40;61.60;;;;;;5022046;28;20436;-63
2021/07/09 01:48:54;;;;;;;1.10;0.60;;;23.40;61.60;;;;;;5021595;28;20418;-63
2021/07/09 01:51:20;;;;;;;0.80;0.40;;;23.40;61.60;;;;;;5022711;28;20735;-63
2021/07/09 01:53:46;;;;;;;0.93;0.40;;;23.40;61.50;;;;;;5023069;28;20498;-63
2021/07/09 01:56:11;;;;;;;0.80;0.50;;;23.40;61.50;;;;;;5022425;28;20398;-63
2021/07/09 01:58:37;;;;;;;0.80;0.37;;;23.40;61.50;;;;;;5022827;28;20398;-63
2021/07/09 02:01:05;;;;;;;1.17;0.50;;;23.40;61.50;;;;;;5023271;28;20564;-63
2021/07/09 02:03:31;;;;;;;0.80;0.40;;;23.40;61.50;;;;;;5023256;28;20439;-63
2021/07/09 02:05:56;;;;;;;0.85;0.40;;;23.40;61.50;;;;;;5022244;28;20891;-63
2021/07/09 02:08:22;;;;;;;1.20;0.63;;;23.40;61.50;;;;;;5022796;28;20501;-62
2021/07/09 02:10:48;;;;;;;0.88;0.43;;;23.40;61.60;;;;;;5022533;28;20446;-63
2021/07/09 02:13:13;;;;;;;1.10;0.47;;;23.40;61.50;;;;;;5022853;28;20453;-62
2021/07/09 02:15:47;;;;;;;0.77;0.30;;;23.40;61.50;;;;;;5022864;28;20444;-63
2021/07/09 02:18:15;;;;;;;1.05;0.50;;;23.40;61.50;;;;;;5022341;28;20395;-63
2021/07/09 02:20:41;;;;;;;1.10;0.50;;;23.40;61.50;;;;;;5022176;28;20447;-63
2021/07/09 02:23:10;;;;;;;1.05;0.47;;;23.40;61.50;;;;;;5020705;28;20980;-63
2021/07/09 02:25:36;;;;;;;0.85;0.45;;;23.40;61.50;;;;;;5023407;28;20486;-63
2021/07/09 02:28:02;;;;;;;1.08;0.50;;;23.40;61.50;;;;;;5022369;28;20419;-63
2021/07/09 02:30:29;;;;;;;0.60;0.40;;;23.40;61.60;;;;;;5022137;28;20388;-63
2021/07/09 02:32:55;;;;;;;0.90;0.40;;;23.30;61.50;;;;;;5022446;28;20399;-63
2021/07/09 02:35:24;;;;;;;0.95;0.40;;;23.40;61.50;;;;;;5037909;28;20403;-63
2021/07/09 02:37:51;;;;;;;1.00;0.50;;;23.40;61.50;;;;;;5022331;28;20390;-63
2021/07/09 02:40:19;;;;;;;0.70;0.32;;;23.30;61.50;;;;;;5021228;28;20395;-62
2021/07/09 02:42:48;;;;;;;0.60;0.40;;;23.30;61.50;;;;;;5022690;28;20387;-62
2021/07/09 02:45:14;;;;;;;0.82;0.40;;;23.30;61.50;;;;;;5022538;28;20392;-62
2021/07/09 02:47:41;;;;;;;1.02;0.35;;;23.30;61.50;;;;;;5022076;28;20807;-62
2021/07/09 02:50:11;;;;;;;1.10;0.43;;;23.30;61.50;;;;;;5021506;28;20452;-62
2021/07/09 02:52:37;;;;;;;0.90;0.40;;;23.30;61.50;;;;;;5022337;28;20383;-62
2021/07/09 02:55:04;;;;;;;0.40;0.28;;;23.30;61.50;;;;;;5022758;28;20795;-62
2021/07/09 02:57:30;;;;;;;1.02;0.40;;;23.30;61.50;;;;;;5022464;28;20383;-62
2021/07/09 02:59:56;;;;;;;0.90;0.40;;;23.30;61.50;;;;;;5022769;28;20418;-63
2021/07/09 03:02:22;;;;;;;0.90;0.40;;;23.30;61.50;;;;;;5021800;28;20755;-61
2021/07/09 03:04:47;;;;;;;0.80;0.40;;;23.30;61.50;;;;;;5026243;28;20387;-62
2021/07/09 03:07:13;;;;;;;0.90;0.40;;;23.30;61.50;;;;;;5025957;28;20387;-62
2021/07/09 03:09:39;;;;;;;1.65;0.40;;;23.30;62.10;;;;;;5025823;28;20430;-62
2021/07/09 03:12:05;;;;;;;1.97;0.50;;;23.30;61.60;;;;;;5025801;28;20394;-62
2021/07/09 03:14:30;;;;;;;0.90;0.40;;;23.30;62.60;;;;;;5025702;28;20399;-62
2021/07/09 03:16:56;;;;;;;1.37;0.60;;;23.30;62.50;;;;;;5026156;28;20410;-65
2021/07/09 03:19:22;;;;;;;1.40;0.52;;;23.30;63.10;;;;;;5025674;28;20513;-62
2021/07/09 03:21:47;;;;;;;2.10;0.50;;;23.30;62.70;;;;;;5025809;28;20418;-65
2021/07/09 03:24:13;;;;;;;1.40;0.50;;;23.40;62.60;;;;;;5024002;28;20930;-63
2021/07/09 03:26:39;;;;;;;1.60;0.40;;;23.40;63.60;;;;;;5024272;28;20444;-62
2021/07/09 03:29:04;;;;;;;1.10;0.30;;;23.50;63.50;;;;;;5025514;28;20476;-62
2021/07/09 03:31:32;;;;;;;1.48;0.35;;;23.50;63.20;;;;;;5025892;28;20490;-62
2021/07/09 03:33:58;;;;;;;1.15;0.40;;;23.50;63.10;;;;;;5040525;28;20403;-62
2021/07/09 03:36:25;;;;;;;0.85;0.30;;;23.50;63.00;;;;;;5025696;28;21081;-63
2021/07/09 03:38:52;;;;;;;0.85;0.45;;;23.60;63.00;;;;;;5025873;28;20486;-63
2021/07/09 03:41:17;;;;;;;1.38;0.40;;;23.50;62.80;;;;;;5040570;28;20387;-61
2021/07/09 03:43:44;;;;;;;0.98;0.38;;;23.50;63.00;;;;;;5025909;28;20402;-62
2021/07/09 03:46:09;;;;;;;1.35;0.47;;;23.40;63.20;;;;;;5023653;28;20586;-64
2021/07/09 03:48:36;;;;;;;3.28;0.60;;;23.50;63.10;;;;;;5024990;28;20422;-65
2021/07/09 03:51:02;;;;;;;2.10;0.50;;;23.50;63.00;;;;;;5025469;28;20474;-62
2021/07/09 03:53:27;;;;;;;2.67;0.47;;;23.50;63.20;;;;;;5024969;28;20395;-63
2021/07/09 03:55:53;;;;;;;1.77;0.30;;;23.60;63.10;;;;;;5025304;28;20398;-64
2021/07/09 03:58:19;;;;;;;1.10;0.40;;;23.60;62.70;;;;;;5024234;28;20375;-62
2021/07/09 04:00:44;;;;;;;2.40;0.50;;;23.60;62.90;;;;;;5024979;28;20418;-63
2021/07/09 04:03:10;;;;;;;2.27;0.33;;;23.50;62.90;;;;;;5024920;28;20782;-61
2021/07/09 04:05:36;;;;;;;1.58;0.40;;;23.50;63.10;;;;;;5024565;28;20477;-63
2021/07/09 04:08:01;;;;;;;1.07;0.40;;;23.50;62.80;;;;;;5024647;28;21414;-61
2021/07/09 04:10:27;;;;;;;3.10;0.60;;;23.50;62.90;;;;;;5023456;28;20933;-62
2021/07/09 04:12:52;;;;;;;1.25;0.30;;;23.50;62.80;;;;;;5024350;28;20410;-63
2021/07/09 04:15:19;;;;;;;3.53;0.60;;;23.50;62.90;;;;;;5023938;28;20402;-63
2021/07/09 04:17:45;;;;;;;1.75;0.40;;;23.50;63.00;;;;;;5022325;28;20391;-62
2021/07/09 04:20:12;;;;;;;2.25;0.40;;;23.50;63.00;;;;;;5022903;28;20531;-61
2021/07/09 04:22:38;;;;;;;2.28;0.40;;;23.50;63.00;;;;;;5022869;28;21010;-63
2021/07/09 04:25:10;;;;;;;0.77;0.35;;;23.50;62.90;;;;;;5023047;28;20895;-62
2021/07/09 04:27:37;;;;;;;1.10;0.30;;;23.50;62.70;;;;;;5024708;28;20458;-62
2021/07/09 04:30:05;;;;;;;0.70;0.30;;;23.40;62.50;;;;;;5023995;28;20435;-62
2021/07/09 04:32:31;;;;;;;2.70;0.40;;;23.40;62.40;;;;;;5024155;28;20395;-62
2021/07/09 04:34:57;;;;;;;1.73;0.40;;;23.40;62.20;;;;;;5024577;28;20402;-62
2021/07/09 04:37:22;;;;;;;2.58;0.50;;;23.40;62.30;;;;;;5022609;28;20811;-62
2021/07/09 04:39:48;;;;;;;2.30;0.50;;;23.40;62.20;;;;;;5023050;28;20414;-62
2021/07/09 04:42:14;;;;;;;4.15;0.55;;;23.40;62.20;;;;;;5023305;28;20406;-63
2021/07/09 04:44:40;;;;;;;1.40;0.30;;;23.40;62.00;;;;;;5022324;28;20906;-62
2021/07/09 04:47:06;;;;;;;1.47;0.30;;;23.40;62.00;;;;;;5024335;28;20457;-66
2021/07/09 04:49:32;;;;;;;1.67;0.38;;;23.40;61.90;;;;;;5024210;28;20817;-64
2021/07/09 04:51:57;;;;;;;4.95;0.55;;;23.40;61.90;;;;;;5024094;28;20387;-62
2021/07/09 04:54:23;;;;;;;1.20;0.30;;;23.40;61.90;;;;;;5023528;28;20395;-62
2021/07/09 04:56:49;;;;;;;2.60;0.50;;;23.40;61.80;;;;;;5024212;28;20429;-63
2021/07/09 04:59:14;;;;;;;1.23;0.40;;;23.30;61.70;;;;;;5024028;28;20746;-63
2021/07/09 05:01:40;;;;;;;2.47;0.43;;;23.40;61.80;;;;;;5021481;28;20410;-63
2021/07/09 05:04:07;;;;;;;1.20;0.30;;;23.30;61.70;;;;;;5038907;28;20403;-63
2021/07/09 05:06:33;;;;;;;3.25;0.35;;;23.30;62.00;;;;;;5023530;28;20898;-63
2021/07/09 05:09:00;;;;;;;2.15;0.52;;;23.30;61.70;;;;;;5023063;28;20422;-64
2021/07/09 05:11:25;;;;;;;1.50;0.40;;;23.30;61.70;;;;;;5023411;28;20391;-64
2021/07/09 05:13:51;;;;;;;1.35;0.40;;;23.30;62.40;;;;;;5023852;28;20863;-64
2021/07/09 05:16:17;;;;;;;2.10;0.40;;;23.30;61.80;;;;;;5022949;28;20869;-64
2021/07/09 05:18:43;;;;;;;0.73;0.30;;;23.30;61.60;;;;;;5023755;28;20439;-62
2021/07/09 05:21:08;;;;;;;1.90;0.55;;;23.30;61.60;;;;;;5023383;28;20430;-64
2021/07/09 05:23:34;;;;;;;1.30;0.40;;;23.30;61.60;;;;;;5023328;28;20402;-62
2021/07/09 05:26:00;;;;;;;1.65;0.50;;;23.30;61.60;;;;;;5021896;28;20832;-62
2021/07/09 05:28:26;;;;;;;1.50;0.30;;;23.30;61.70;;;;;;5022778;28;20411;-62
2021/07/09 05:30:52;;;;;;;1.85;0.60;;;23.20;61.80;;;;;;5023542;28;20444;-61
2021/07/09 05:33:17;;;;;;;0.90;0.40;;;23.20;61.70;;;;;;5023473;28;20411;-62
2021/07/09 05:35:44;;;;;;;2.10;0.50;;;23.30;61.70;;;;;;5024011;28;20510;-62
2021/07/09 05:38:10;;;;;;;1.45;0.60;;;23.30;61.70;;;;;;5023172;28;20391;-62
2021/07/09 05:40:36;;;;;;;1.45;0.50;;;23.20;61.70;;;;;;5021886;28;21134;-62
2021/07/09 05:43:02;;;;;;;2.03;0.50;;;23.20;62.00;;;;;;5023034;28;21250;-62
2021/07/09 05:45:29;;;;;;;1.20;0.40;;;23.20;61.60;;;;;;5023567;28;20675;-62
2021/07/09 05:47:55;;;;;;;0.98;0.40;;;23.20;61.60;;;;;;5023196;28;20407;-61
2021/07/09 05:50:21;;;;;;;1.23;0.50;;;23.20;61.60;;;;;;5022510;28;20399;-62
2021/07/09 05:52:48;;;;;;;0.90;0.52;;;23.20;61.60;;;;;;5022980;28;20396;-62
2021/07/09 05:55:15;;;;;;;1.50;0.50;;;23.20;61.60;;;;;;5022950;28;20399;-62
2021/07/09 05:57:41;;;;;;;1.13;0.50;;;23.20;61.60;;;;;;5023104;28;20383;-62
2021/07/09 06:00:09;;;;;;;1.35;0.40;;;23.20;61.80;;;;;;5022838;28;20395;-62
2021/07/09 06:02:35;;;;;;;1.55;0.57;;;23.20;61.60;;;;;;5021201;28;20400;-61
2021/07/09 06:05:00;;;;;;;1.40;0.50;;;23.20;61.60;;;;;;5022719;28;20428;-61
2021/07/09 06:07:26;;;;;;;1.47;0.60;;;23.20;61.60;;;;;;5022918;28;20517;-62
2021/07/09 06:09:52;;;;;;;1.00;0.50;;;23.20;61.60;;;;;;5022446;28;20426;-62
2021/07/09 06:12:17;;;;;;;0.80;0.43;;;23.20;61.50;;;;;;5037603;28;20474;-62
2021/07/09 06:14:43;;;;;;;1.20;0.52;;;23.20;61.50;;;;;;5022696;28;20549;-63
2021/07/09 06:17:09;;;;;;;0.95;0.35;;;23.20;61.60;;;;;;5022607;28;20388;-62
2021/07/09 06:19:35;;;;;;;1.50;0.40;;;23.20;61.50;;;;;;5021293;28;20879;-62
2021/07/09 06:22:01;;;;;;;1.08;0.50;;;23.20;61.50;;;;;;5022422;28;20411;-62
2021/07/09 06:24:26;;;;;;;0.67;0.30;;;23.20;61.60;;;;;;5022543;28;20402;-62
2021/07/09 06:26:52;;;;;;;0.88;0.45;;;23.20;61.50;;;;;;5022724;28;21281;-62
2021/07/09 06:29:18;;;;;;;0.90;0.30;;;23.20;61.50;;;;;;5022691;28;20423;-63
2021/07/09 06:31:43;;;;;;;0.68;0.38;;;23.20;61.50;;;;;;5020880;28;20406;-62
2021/07/09 06:34:09;;;;;;;0.87;0.40;;;23.20;61.50;;;;;;5022568;28;20523;-61
2021/07/09 06:36:35;;;;;;;1.13;0.40;;;23.20;61.50;;;;;;5023962;28;20391;-61
2021/07/09 06:39:00;;;;;;;1.60;0.40;;;23.20;61.60;;;;;;5026776;28;20886;-62
2021/07/09 06:41:26;;;;;;;0.50;0.30;;;23.20;61.50;;;;;;5026804;28;20394;-64
2021/07/09 06:43:52;;;;;;;0.70;0.30;;;23.20;61.50;;;;;;5026868;28;20406;-62
2021/07/09 06:46:18;;;;;;;3.17;0.40;;;23.20;61.50;;;;;;5026151;28;20451;-62
2021/07/09 06:48:44;;;;;;;0.70;0.30;;;23.20;61.60;;;;;;5025975;28;20522;-62
2021/07/09 06:51:10;;;;;;;1.08;0.30;;;23.20;61.50;;;;;;5026479;28;20390;-61
2021/07/09 06:53:36;;;;;;;1.10;0.40;;;23.20;61.50;;;;;;5025530;28;20803;-62
2021/07/09 06:56:02;;;;;;;0.77;0.40;;;23.20;61.50;;;;;;5027047;28;20484;-62
2021/07/09 06:58:29;;;;;;;0.73;0.30;;;23.20;61.50;;;;;;5026132;28;20986;-62
2021/07/09 07:00:54;;;;;;;1.45;0.30;;;23.30;61.50;;;;;;5041434;28;20395;-62
2021/07/09 07:03:20;;;;;;;0.60;0.30;;;23.30;61.50;;;;;;5026295;28;20786;-63
2021/07/09 07:05:46;;;;;;;0.73;0.40;;;23.30;62.10;;;;;;5025906;28;20390;-62
2021/07/09 07:08:20;;;;;;;1.33;0.40;;;23.30;61.60;;;;;;5026180;28;20965;-62
2021/07/09 07:10:49;;;;;;;0.82;0.40;;;23.30;61.50;;;;;;5025952;28;20949;-62
2021/07/09 07:13:15;;;;;;;0.70;0.40;;;23.30;61.50;;;;;;5026242;28;20502;-62
2021/07/09 07:15:41;;;;;;;0.70;0.30;;;23.30;61.40;;;;;;5025696;28;20466;-63
2021/07/09 07:18:12;;;;;;;0.60;0.30;;;23.30;61.50;;;;;;5041221;28;20383;-62
2021/07/09 07:20:42;;;;;;;1.02;0.30;;;23.30;61.50;;;;;;5025237;28;20422;-62
2021/07/09 07:23:13;;;;;;;0.65;0.30;;;23.30;61.40;;;;;;5025834;28;20510;-62
2021/07/09 07:25:39;;;;;;;0.55;0.28;;;23.30;61.40;;;;;;5025532;28;20384;-62
2021/07/09 07:28:06;;;;;;;1.80;0.40;;;23.30;61.40;;;;;;5025925;28;20426;-62
2021/07/09 07:30:32;;;;;;;0.70;0.30;;;23.30;61.30;;;;;;5025273;28;20419;-61
2021/07/09 07:32:57;;;;;;;1.02;0.30;;;23.30;61.30;;;;;;5025419;28;20476;-61
2021/07/09 07:35:23;;;;;;;1.10;0.40;;;23.30;61.50;;;;;;5025994;28;20526;-62
2021/07/09 07:37:49;;;;;;;2.53;0.37;;;23.30;61.60;;;;;;5025433;28;20460;-62
2021/07/09 07:40:15;;;;;;;1.58;0.40;;;23.30;61.60;;;;;;5025173;28;20397;-63
2021/07/09 07:42:41;;;;;;;2.53;0.47;;;23.30;61.60;;;;;;5025190;28;20399;-62
2021/07/09 07:45:07;;;;;;;1.40;0.40;;;23.30;61.70;;;;;;5025743;28;20910;-62
2021/07/09 07:47:33;;;;;;;1.48;0.20;;;23.30;61.70;;;;;;5024583;28;20402;-63
2021/07/09 07:49:58;;;;;;;0.85;0.35;;;23.30;61.90;;;;;;5024595;28;20399;-63
2021/07/09 07:52:24;;;;;;;1.70;0.50;;;23.30;61.50;;;;;;5024666;28;20480;-62
2021/07/09 07:54:50;;;;;;;1.15;0.35;;;23.30;61.50;;;;;;5024915;28;21039;-62
2021/07/09 07:57:16;;;;;;;0.63;0.30;;;23.40;61.60;;;;;;5024982;28;20389;-62
2021/07/09 07:59:41;;;;;;;1.58;0.30;;;23.30;61.20;;;;;;5025234;28;20389;-61
2021/07/09 08:02:08;;;;;;;1.67;0.30;;;23.30;61.20;;;;;;5025030;28;20403;-65
2021/07/09 08:04:34;;;;;;;1.25;0.30;;;23.30;61.10;;;;;;5024651;28;20404;-62
2021/07/09 08:07:00;;;;;;;1.60;0.27;;;23.30;61.10;;;;;;5024695;28;20391;-62
2021/07/09 08:09:26;;;;;;;1.08;0.30;;;23.30;61.00;;;;;;5024818;28;20423;-62
2021/07/09 08:11:52;;;;;;;0.68;0.30;;;23.30;61.00;;;;;;5025109;28;20391;-63
2021/07/09 08:14:18;;;;;;;0.90;0.30;;;23.30;61.00;;;;;;5024582;28;20863;-63
2021/07/09 08:16:48;;;;;;;0.88;0.30;;;23.30;61.00;;;;;;5024649;28;20809;-62
2021/07/09 08:19:13;;;;;;;1.25;0.30;;;23.30;61.00;;;;;;5024752;28;20391;-62
2021/07/09 08:21:39;;;;;;;0.80;0.30;;;23.30;61.00;;;;;;5024624;28;20656;-62
2021/07/09 08:24:05;;;;;;;1.10;0.30;;;23.30;60.90;;;;;;5024542;28;20980;-62
2021/07/09 08:26:30;;;;;;;0.60;0.30;;;23.30;60.90;;;;;;5024589;28;20390;-62
2021/07/09 08:28:56;;;;;;;1.00;0.30;;;23.30;60.90;;;;;;5024478;28;20423;-61
2021/07/09 08:31:23;;;;;;;0.60;0.20;;;23.30;60.90;;;;;;5024946;28;20383;-62
2021/07/09 08:33:49;;;;;;;0.40;0.10;;;23.30;60.90;;;;;;5024516;28;20450;-62
2021/07/09 08:36:15;;;;;;;0.55;0.20;;;23.30;60.90;;;;;;5024035;28;20395;-62
2021/07/09 08:38:41;;;;;;;0.90;0.20;;;23.30;61.50;;;;;;5024339;28;20410;-62
2021/07/09 08:41:06;;;;;;;0.40;0.20;;;23.30;60.90;;;;;;5024326;28;20391;-62
2021/07/09 08:43:32;;;;;;;0.63;0.22;;;23.30;60.90;;;;;;5024981;28;20885;-62
2021/07/09 08:45:58;;;;;;;0.80;0.30;;;23.30;60.80;;;;;;5024077;28;20469;-62
2021/07/09 08:48:26;;;;;;;0.30;0.20;;;23.30;60.80;;;;;;5023738;28;20626;-61
2021/07/09 08:50:51;;;;;;;0.33;0.20;;;23.30;60.80;;;;;;5024262;28;20450;-62
2021/07/09 08:53:17;;;;;;;1.23;0.30;;;23.30;60.80;;;;;;5022515;28;20854;-61
2021/07/09 08:55:44;;;;;;;0.40;0.30;;;23.30;60.80;;;;;;5024300;28;20383;-62
2021/07/09 08:58:09;;;;;;;0.80;0.20;;;23.30;60.80;;;;;;5023893;28;20395;-62
2021/07/09 09:00:35;;;;;;;0.67;0.20;;;23.30;60.70;;;;;;5022797;28;20391;-61
2021/07/09 09:03:19;;;;;;;0.68;0.30;;;23.30;60.70;;;;;;5024084;28;20863;-62
2021/07/09 09:05:46;;;;;;;0.40;0.20;;;23.30;60.70;;;;;;5022338;28;20395;-62
2021/07/09 09:08:14;;;;;;;0.55;0.20;;;23.30;60.70;;;;;;5023843;28;20418;-61
2021/07/09 09:10:40;;;;;;;0.50;0.30;;;23.30;60.70;;;;;;5023686;28;20387;-62
2021/07/09 09:13:19;;;;;;;0.60;0.20;;;23.30;60.60;;;;;;5024075;28;20395;-62
2021/07/09 09:16:03;;;;;;;0.50;0.20;;;23.30;60.60;;;;;;5023870;28;20423;-63
2021/07/09 09:18:33;;;;;;;0.60;0.30;;;23.30;60.60;;;;;;5023628;28;20395;-61
2021/07/09 09:20:58;;;;;;;0.40;0.20;;;23.30;60.60;;;;;;5023506;28;20413;-62
2021/07/09 09:23:26;;;;;;;0.45;0.20;;;23.30;60.60;;;;;;5023487;28;20802;-61
2021/07/09 09:25:52;;;;;;;0.32;0.20;;;23.30;60.60;;;;;;5023346;28;20395;-62
2021/07/09 09:28:18;;;;;;;0.33;0.20;;;23.30;60.50;;;;;;5023365;28;20490;-62
2021/07/09 09:30:45;;;;;;;0.38;0.20;;;23.30;60.50;;;;;;5023298;28;20483;-62
2021/07/09 09:33:13;;;;;;;0.50;0.20;;;23.30;60.50;;;;;;5023582;28;20383;-62
2021/07/09 09:35:42;;;;;;;0.30;0.13;;;23.30;60.40;;;;;;5022527;28;20393;-62
2021/07/09 09:38:18;;;;;;;0.32;0.20;;;23.30;60.40;;;;;;5023133;28;20388;-61
2021/07/09 09:40:46;;;;;;;0.57;0.10;;;23.30;60.40;;;;;;5023318;28;20457;-62
2021/07/09 09:43:14;;;;;;;0.32;0.20;;;23.30;60.30;;;;;;5023639;28;20444;-62
2021/07/09 09:45:40;;;;;;;0.70;0.10;;;23.30;60.30;;;;;;5023617;28;20399;-61
2021/07/09 09:48:11;;;;;;;0.77;0.20;;;23.30;60.30;;;;;;5021893;28;20410;-62
2021/07/09 09:50:41;;;;;;;0.47;0.20;;;23.30;60.30;;;;;;5022427;28;20449;-61
2021/07/09 09:53:07;;;;;;;0.60;0.30;;;23.30;60.30;;;;;;5022814;28;20395;-62
2021/07/09 09:55:33;;;;;;;0.40;0.10;;;23.30;60.30;;;;;;5023165;28;20403;-62
2021/07/09 09:58:08;;;;;;;0.32;0.20;;;23.30;60.20;;;;;;5023096;28;20382;-61
2021/07/09 10:00:33;;;;;;;0.30;0.20;;;23.30;60.30;;;;;;5022808;28;20733;-62
2021/07/09 10:03:03;;;;;;;0.30;0.10;;;23.30;60.20;;;;;;5023104;28;21345;-62
2021/07/09 10:05:37;;;;;;;0.30;0.20;;;23.30;60.30;;;;;;5023175;28;20486;-62
2021/07/09 10:08:04;;;;;;;0.20;0.20;;;23.30;60.20;;;;;;5023082;28;20411;-62
2021/07/09 10:10:31;;;;;;;0.28;0.10;;;23.30;60.30;;;;;;5022280;28;20411;-61
2021/07/09 10:12:57;;;;;;;0.80;0.20;;;23.30;60.10;;;;;;5022630;28;20386;-62
2021/07/09 10:15:26;;;;;;;0.28;0.15;;;23.30;60.10;;;;;;5022896;28;20898;-62
2021/07/09 10:17:54;;;;;;;0.50;0.13;;;23.30;60.20;;;;;;5022526;28;20961;-61
2021/07/09 10:20:21;;;;;;;0.38;0.20;;;23.30;60.10;;;;;;5022546;28;20875;-62
2021/07/09 10:22:48;;;;;;;0.20;0.17;;;23.30;60.20;;;;;;5022768;28;20483;-62
2021/07/09 10:25:16;;;;;;;0.40;0.20;;;23.30;60.00;;;;;;5022978;28;20510;-61
2021/07/09 10:27:44;;;;;;;0.38;0.17;;;23.30;60.10;;;;;;5022312;28;20985;-62
2021/07/09 10:30:12;;;;;;;0.20;0.10;;;23.30;60.00;;;;;;5022763;28;20433;-62
2021/07/09 10:32:43;;;;;;;0.30;0.20;;;23.30;60.00;;;;;;5021967;28;20387;-62
2021/07/09 10:35:42;;;;;;;0.47;0.20;;;23.30;60.00;;;;;;5022921;28;20390;-62
2021/07/09 10:38:17;;;;;;;0.30;0.10;;;23.30;60.00;;;;;;5022443;28;20422;-62
2021/07/09 10:40:43;;;;;;;0.40;0.10;;;23.30;60.00;;;;;;5021841;28;20475;-62
2021/07/09 10:43:12;;;;;;;0.50;0.10;;;23.30;60.00;;;;;;5022421;28;20383;-61
2021/07/09 10:45:39;;;;;;;0.13;0.10;;;23.30;59.90;;;;;;5022242;28;20425;-61
2021/07/09 10:48:08;;;;;;;0.50;0.10;;;23.30;60.00;;;;;;5022551;28;20501;-62
2021/07/09 10:50:46;;;;;;;0.13;0.10;;;23.30;59.90;;;;;;5022322;28;20433;-61
2021/07/09 10:53:16;;;;;;;0.20;0.15;;;23.30;60.00;;;;;;5022856;28;20375;-62
2021/07/09 10:55:56;;;;;;;0.40;0.20;;;23.30;60.00;;;;;;5022507;28;20402;-61
2021/07/09 10:58:29;;;;;;;0.30;0.10;;;23.30;60.00;;;;;;5021934;28;20740;-62
2021/07/09 11:00:56;;;;;;;0.40;0.20;;;23.30;60.00;;;;;;5022390;28;20403;-62
2021/07/09 11:03:49;;;;;;;0.20;0.10;;;23.30;60.00;;;;;;5022294;28;20379;-63
2021/07/09 11:06:33;;;;;;;0.88;0.17;;;23.30;60.00;;;;;;5021714;28;20407;-65
2021/07/09 11:09:03;;;;;;;0.30;0.10;;;23.30;60.00;;;;;;5022370;28;20422;-61
2021/07/09 11:11:30;;;;;;;0.20;0.10;;;23.30;60.00;;;;;;5021052;28;20478;-62
2021/07/09 11:14:02;;;;;;;0.20;0.10;;;23.30;60.00;;;;;;5022083;28;20399;-62
2021/07/09 11:16:38;;;;;;;0.30;0.10;;;23.30;60.00;;;;;;5022592;28;20383;-62
2021/07/09 11:19:13;;;;;;;0.30;0.10;;;23.30;59.90;;;;;;5037307;28;20435;-62
2021/07/09 11:21:39;;;;;;;0.30;0.10;;;23.30;59.90;;;;;;5022153;28;20431;-62
2021/07/09 11:24:13;;;;;;;0.57;0.20;;;23.30;59.90;;;;;;5022931;28;20438;-61
2021/07/09 11:26:45;;;;;;;0.20;0.13;;;23.30;59.80;;;;;;5025532;28;20387;-61
2021/07/09 11:29:36;;;;;;;0.23;0.10;;;23.30;59.80;;;;;;5025575;28;20521;-62
2021/07/09 11:32:03;;;;;;;0.30;0.10;;;23.30;59.80;;;;;;5026005;28;20375;-62
2021/07/09 11:34:31;;;;;;;1.30;0.10;;;23.30;59.80;;;;;;5025152;28;20883;-62
2021/07/09 11:37:03;;;;;;;0.68;0.20;;;23.10;56.60;;;;;;5026183;28;20387;-62
2021/07/09 11:39:37;;;;;;;0.80;0.10;;;22.90;56.10;;;;;;5025696;28;20406;-61
2021/07/09 11:42:09;;;;;;;0.50;0.20;;;22.70;55.70;;;;;;5025678;28;20393;-61
2021/07/09 11:44:38;;;;;;;0.10;0.10;;;22.50;56.00;;;;;;5025045;28;20387;-61
2021/07/09 11:47:16;;;;;;;1.30;0.08;;;22.60;56.20;;;;;;5025610;28;20811;-61
2021/07/09 11:49:55;;;;;;;1.83;0.15;;;22.70;56.40;;;;;;5038335;28;20423;-61
2021/07/09 11:52:24;;;;;;;6.40;0.43;;;22.70;56.50;;;;;;5024929;28;20470;-66
2021/07/09 11:54:52;;;;;;;4.28;0.20;;;22.80;56.10;;;;;;5024871;28;20913;-62
2021/07/09 11:57:21;;;;;;;2.90;0.20;;;23.00;57.40;;;;;;5025105;28;20383;-61
2021/07/09 11:59:51;;;;;;;4.73;0.40;;;23.10;57.00;;;;;;5025343;28;20406;-62
2021/07/09 12:02:19;;;;;;;2.65;0.20;;;23.30;57.20;;;;;;5024141;28;20441;-62
2021/07/09 12:04:46;;;;;;;6.78;0.40;;;23.50;57.10;;;;;;5023375;28;20387;-61
2021/07/09 12:07:44;;;;;;;5.57;0.32;;;23.60;57.10;;;;;;5023817;28;20410;-62
2021/07/09 12:10:12;;;;;;;3.92;0.28;;;23.70;57.10;;;;;;5023917;28;20399;-62
2021/07/09 12:12:42;;;;;;;3.95;0.28;;;23.80;57.10;;;;;;5022333;28;20387;-61
2021/07/09 12:15:19;;;;;;;1.50;0.25;;;23.80;56.90;;;;;;5022934;28;20387;-64
2021/07/09 12:17:48;;;;;;;3.10;0.15;;;23.90;56.50;;;;;;5023046;28;21128;-64
2021/07/09 12:20:19;;;;;;;0.38;0.10;;;23.90;56.10;;;;;;5023377;28;20427;-62
2021/07/09 12:22:57;;;;;;;1.35;0.10;;;24.00;56.20;;;;;;5022456;28;20415;-62
2021/07/09 12:25:36;;;;;;;0.90;0.20;;;24.00;55.70;;;;;;5024518;28;20427;-62
2021/07/09 12:28:11;;;;;;;2.60;0.32;;;24.10;55.80;;;;;;5024348;28;20383;-63
2021/07/09 12:30:41;;;;;;;11.85;1.08;;;24.10;55.10;;;;;;5022121;28;20439;-64
2021/07/09 12:33:12;;;;;;;4.78;0.40;;;24.20;54.60;;;;;;5022136;28;20395;-62
2021/07/09 12:35:38;;;;;;;5.25;0.50;;;24.20;54.70;;;;;;5015250;28;20436;-63
2021/07/09 12:38:12;;;;;;;9.65;0.70;;;24.20;54.40;;;;;;5018388;28;20731;-63
2021/07/09 12:40:49;;;;;;;5.72;0.80;;;24.30;54.50;;;;;;5022353;28;20395;-62
2021/07/09 12:43:18;;;;;;;5.30;0.70;;;24.30;53.90;;;;;;5020081;28;20407;-62
2021/07/09 12:46:00;;;;;;;4.85;0.40;;;24.30;54.10;;;;;;5021092;28;20512;-64
2021/07/09 12:48:39;;;;;;;3.40;0.28;;;24.30;54.10;;;;;;5020258;28;21854;-62
2021/07/09 12:51:26;;;;;;;2.92;0.28;;;24.30;54.20;;;;;;5022835;28;20449;-62